createdAt,value
2022-09-06T00:00:32.415Z,36.90
2022-09-06T00:01:32.408Z,36.58
2022-09-06T00:02:32.445Z,36.42
2022-09-06T00:03:32.425Z,36.09
2022-09-06T00:04:32.417Z,36.58
2022-09-06T00:05:32.373Z,35.77
2022-09-06T00:06:32.363Z,36.74
2022-09-06T00:07:32.380Z,36.09
2022-09-06T00:08:32.355Z,36.58
2022-09-06T00:09:32.352Z,36.25
2022-09-06T00:10:32.356Z,36.42
2022-09-06T00:11:32.341Z,36.09
2022-09-06T00:12:32.359Z,35.77
2022-09-06T00:13:32.321Z,36.25
2022-09-06T00:14:32.788Z,35.77
2022-09-06T00:15:32.323Z,35.93
2022-09-06T00:16:32.378Z,36.09
2022-09-06T00:17:32.314Z,36.42
2022-09-06T00:18:32.289Z,36.42
2022-09-06T00:19:32.286Z,36.58
2022-09-06T00:20:32.277Z,36.90
2022-09-06T00:21:32.306Z,36.25
2022-09-06T00:22:32.260Z,36.58
2022-09-06T00:23:32.250Z,36.74
2022-09-06T00:24:32.243Z,36.74
2022-09-06T00:25:32.245Z,36.09
2022-09-06T00:26:32.253Z,36.25
2022-09-06T00:27:32.215Z,36.58
2022-09-06T00:28:32.221Z,36.09
2022-09-06T00:29:32.203Z,36.42
2022-09-06T00:30:32.204Z,36.74
2022-09-06T00:31:32.270Z,36.42
2022-09-06T00:32:32.204Z,36.58
2022-09-06T00:33:32.181Z,36.25
2022-09-06T00:34:32.182Z,36.58
2022-09-06T00:35:32.191Z,36.09
2022-09-06T00:36:32.167Z,36.58
2022-09-06T00:37:32.164Z,36.25
2022-09-06T00:38:32.157Z,36.42
2022-09-06T00:39:32.247Z,35.93
2022-09-06T00:40:32.129Z,35.77
2022-09-06T00:41:32.234Z,35.61
2022-09-06T00:42:32.115Z,36.25
2022-09-06T00:43:32.116Z,36.09
2022-09-06T00:44:32.110Z,36.42
2022-09-06T00:45:32.101Z,36.42
2022-09-06T00:46:32.175Z,36.90
2022-09-06T00:47:32.086Z,36.42
2022-09-06T00:48:32.079Z,36.25
2022-09-06T00:49:32.074Z,36.09
2022-09-06T00:50:32.076Z,36.09
2022-09-06T00:51:32.071Z,36.09
2022-09-06T00:52:32.049Z,36.25
2022-09-06T00:53:32.049Z,36.42
2022-09-06T00:54:32.039Z,36.09
2022-09-06T00:55:32.026Z,36.09
2022-09-06T00:56:32.050Z,36.09
2022-09-06T00:57:32.027Z,36.09
2022-09-06T00:58:32.016Z,36.74
2022-09-06T00:59:31.997Z,36.09
2022-09-06T01:00:31.988Z,35.93
2022-09-06T01:01:32.083Z,36.25
2022-09-06T01:02:32.114Z,35.93
2022-09-06T01:03:31.982Z,35.77
2022-09-06T01:04:31.968Z,36.25
2022-09-06T01:05:31.968Z,36.58
2022-09-06T01:06:31.975Z,35.77
2022-09-06T01:07:31.951Z,36.09
2022-09-06T01:08:31.946Z,36.09
2022-09-06T01:09:31.932Z,36.58
2022-09-06T01:10:31.931Z,35.93
2022-09-06T01:11:31.949Z,35.29
2022-09-06T01:12:31.917Z,36.09
2022-09-06T01:13:31.911Z,36.42
2022-09-06T01:14:31.977Z,35.77
2022-09-06T01:15:31.951Z,36.09
2022-09-06T01:16:31.904Z,35.29
2022-09-06T01:17:31.876Z,35.77
2022-09-06T01:18:31.870Z,35.45
2022-09-06T01:19:31.866Z,36.42
2022-09-06T01:20:31.853Z,36.90
2022-09-06T01:21:31.875Z,36.90
2022-09-06T01:22:31.849Z,36.25
2022-09-06T01:23:31.845Z,36.42
2022-09-06T01:24:31.836Z,36.74
2022-09-06T01:25:31.828Z,36.09
2022-09-06T01:26:31.837Z,36.09
2022-09-06T01:27:31.817Z,36.25
2022-09-06T01:28:31.811Z,35.93
2022-09-06T01:29:31.793Z,36.09
2022-09-06T01:30:31.794Z,36.09
2022-09-06T01:31:31.814Z,35.93
2022-09-06T01:32:31.787Z,36.09
2022-09-06T01:33:31.783Z,36.25
2022-09-06T01:34:31.762Z,35.77
2022-09-06T01:35:31.759Z,36.25
2022-09-06T01:36:31.770Z,36.25
2022-09-06T01:37:31.739Z,36.09
2022-09-06T01:38:31.737Z,36.09
2022-09-06T01:39:31.786Z,36.09
2022-09-06T01:40:31.734Z,36.90
2022-09-06T01:41:31.739Z,36.58
2022-09-06T01:42:31.711Z,36.25
2022-09-06T01:43:31.703Z,36.25
2022-09-06T01:44:31.689Z,36.58
2022-09-06T01:45:31.687Z,36.42
2022-09-06T01:46:31.932Z,36.25
2022-09-06T01:47:31.679Z,36.42
2022-09-06T01:48:31.669Z,35.77
2022-09-06T01:49:31.660Z,36.09
2022-09-06T01:50:31.661Z,35.77
2022-09-06T01:51:31.672Z,36.09
2022-09-06T01:52:31.643Z,36.42
2022-09-06T01:53:31.639Z,36.25
2022-09-06T01:54:31.631Z,36.42
2022-09-06T01:55:31.627Z,36.09
2022-09-06T01:56:31.640Z,36.25
2022-09-06T01:57:31.616Z,36.09
2022-09-06T01:58:31.599Z,36.42
2022-09-06T01:59:31.597Z,36.58
2022-09-06T02:00:31.597Z,36.58
2022-09-06T02:01:31.649Z,36.09
2022-09-06T02:02:31.661Z,36.58
2022-09-06T02:03:31.573Z,36.58
2022-09-06T02:04:31.562Z,36.42
2022-09-06T02:05:31.554Z,36.74
2022-09-06T02:06:31.565Z,36.58
2022-09-06T02:07:31.550Z,36.58
2022-09-06T02:08:31.530Z,36.42
2022-09-06T02:09:31.524Z,36.90
2022-09-06T02:10:31.526Z,37.06
2022-09-06T02:11:31.546Z,36.58
2022-09-06T02:12:31.515Z,36.58
2022-09-06T02:13:31.503Z,36.42
2022-09-06T02:14:31.487Z,36.74
2022-09-06T02:15:32.483Z,36.90
2022-09-06T02:16:31.585Z,36.74
2022-09-06T02:17:31.569Z,36.90
2022-09-06T02:18:31.467Z,36.58
2022-09-06T02:19:31.452Z,37.06
2022-09-06T02:20:31.451Z,36.58
2022-09-06T02:21:31.475Z,36.42
2022-09-06T02:22:31.439Z,36.90
2022-09-06T02:23:31.424Z,36.74
2022-09-06T02:24:31.428Z,36.58
2022-09-06T02:25:31.426Z,36.58
2022-09-06T02:26:31.431Z,36.42
2022-09-06T02:27:31.412Z,36.42
2022-09-06T02:28:31.395Z,36.25
2022-09-06T02:29:31.400Z,36.09
2022-09-06T02:30:31.472Z,36.42
2022-09-06T02:31:31.382Z,36.90
2022-09-06T02:32:31.364Z,36.25
2022-09-06T02:33:31.473Z,36.74
2022-09-06T02:34:31.379Z,36.90
2022-09-06T02:35:31.339Z,36.58
2022-09-06T02:36:31.369Z,36.58
2022-09-06T02:37:31.324Z,36.42
2022-09-06T02:38:31.339Z,36.74
2022-09-06T02:39:31.344Z,36.74
2022-09-06T02:40:31.320Z,36.90
2022-09-06T02:41:31.329Z,37.06
2022-09-06T02:42:31.306Z,36.74
2022-09-06T02:43:31.310Z,36.90
2022-09-06T02:44:31.277Z,36.90
2022-09-06T02:45:31.272Z,36.42
2022-09-06T02:46:31.323Z,36.42
2022-09-06T02:47:31.268Z,36.74
2022-09-06T02:48:31.245Z,36.58
2022-09-06T02:49:31.253Z,35.77
2022-09-06T02:50:31.235Z,36.25
2022-09-06T02:51:31.249Z,36.74
2022-09-06T02:52:31.222Z,36.74
2022-09-06T02:53:31.210Z,36.74
2022-09-06T02:54:31.207Z,36.90
2022-09-06T02:55:31.196Z,37.06
2022-09-06T02:56:31.206Z,36.25
2022-09-06T02:57:31.202Z,37.38
2022-09-06T02:58:31.248Z,37.06
2022-09-06T02:59:31.154Z,36.74
2022-09-06T03:00:31.163Z,36.90
2022-09-06T03:01:32.261Z,37.22
2022-09-06T03:02:31.199Z,37.54
2022-09-06T03:03:31.150Z,37.54
2022-09-06T03:04:31.145Z,36.74
2022-09-06T03:05:31.129Z,37.38
2022-09-06T03:06:31.146Z,37.54
2022-09-06T03:07:31.107Z,37.22
2022-09-06T03:08:31.107Z,36.74
2022-09-06T03:09:31.102Z,37.87
2022-09-06T03:10:31.103Z,36.74
2022-09-06T03:11:31.113Z,36.74
2022-09-06T03:12:31.078Z,38.03
2022-09-06T03:13:31.076Z,36.58
2022-09-06T03:14:31.064Z,37.38
2022-09-06T03:15:31.060Z,37.71
2022-09-06T03:16:31.104Z,37.38
2022-09-06T03:17:31.048Z,36.42
2022-09-06T03:18:31.046Z,36.74
2022-09-06T03:19:31.035Z,37.22
2022-09-06T03:20:35.056Z,37.22
2022-09-06T03:21:33.042Z,38.19
2022-09-06T03:22:31.016Z,38.03
2022-09-06T03:23:31.016Z,36.90
2022-09-06T03:24:31.053Z,37.54
2022-09-06T03:25:31.146Z,37.71
2022-09-06T03:26:31.004Z,36.58
2022-09-06T03:27:30.972Z,37.06
2022-09-06T03:28:30.976Z,38.83
2022-09-06T03:29:31.964Z,37.22
2022-09-06T03:30:30.978Z,37.54
2022-09-06T03:31:30.972Z,37.06
2022-09-06T03:32:30.939Z,37.38
2022-09-06T03:33:30.938Z,37.71
2022-09-06T03:34:30.933Z,38.35
2022-09-06T03:35:30.922Z,37.22
2022-09-06T03:36:30.931Z,38.35
2022-09-06T03:37:30.915Z,38.67
2022-09-06T03:38:30.908Z,38.67
2022-09-06T03:39:30.900Z,37.87
2022-09-06T03:40:30.884Z,37.71
2022-09-06T03:41:30.896Z,37.06
2022-09-06T03:42:30.865Z,37.54
2022-09-06T03:43:30.857Z,37.87
2022-09-06T03:44:30.861Z,38.03
2022-09-06T03:45:30.893Z,38.19
2022-09-06T03:46:30.906Z,37.38
2022-09-06T03:47:30.829Z,38.99
2022-09-06T03:48:30.824Z,38.35
2022-09-06T03:49:30.821Z,37.54
2022-09-06T03:50:30.816Z,37.38
2022-09-06T03:51:30.835Z,38.03
2022-09-06T03:52:30.806Z,37.38
2022-09-06T03:53:30.787Z,37.06
2022-09-06T03:54:30.787Z,38.83
2022-09-06T03:55:31.789Z,37.22
2022-09-06T03:56:30.791Z,37.06
2022-09-06T03:57:30.768Z,37.71
2022-09-06T03:58:30.765Z,37.38
2022-09-06T03:59:31.671Z,37.54
2022-09-06T04:00:30.748Z,37.71
2022-09-06T04:01:30.863Z,37.71
2022-09-06T04:02:30.752Z,37.38
2022-09-06T04:03:30.724Z,39.16
2022-09-06T04:04:30.720Z,38.83
2022-09-06T04:05:30.713Z,39.64
2022-09-06T04:06:30.705Z,37.38
2022-09-06T04:07:30.713Z,37.06
2022-09-06T04:08:30.692Z,36.74
2022-09-06T04:09:30.684Z,37.54
2022-09-06T04:10:30.684Z,38.99
2022-09-06T04:11:30.668Z,36.74
2022-09-06T04:12:30.680Z,37.06
2022-09-06T04:13:30.650Z,37.06
2022-09-06T04:14:30.644Z,36.74
2022-09-06T04:15:30.630Z,37.54
2022-09-06T04:16:30.645Z,38.51
2022-09-06T04:17:30.661Z,38.99
2022-09-06T04:18:30.709Z,37.38
2022-09-06T04:19:30.617Z,37.38
2022-09-06T04:20:30.606Z,37.54
2022-09-06T04:21:30.607Z,37.06
2022-09-06T04:22:30.611Z,38.51
2022-09-06T04:23:30.587Z,38.19
2022-09-06T04:24:30.589Z,38.67
2022-09-06T04:25:30.600Z,37.54
2022-09-06T04:26:30.568Z,37.71
2022-09-06T04:27:30.575Z,38.03
2022-09-06T04:28:30.557Z,38.99
2022-09-06T04:29:30.546Z,38.35
2022-09-06T04:30:30.545Z,38.99
2022-09-06T04:31:30.568Z,39.80
2022-09-06T04:32:30.541Z,39.48
2022-09-06T04:33:30.514Z,38.67
2022-09-06T04:34:30.506Z,39.16
2022-09-06T04:35:30.502Z,38.67
2022-09-06T04:36:30.510Z,39.16
2022-09-06T04:37:30.508Z,40.28
2022-09-06T04:38:30.494Z,40.28
2022-09-06T04:39:30.517Z,38.83
2022-09-06T04:40:30.473Z,39.16
2022-09-06T04:41:30.475Z,40.61
2022-09-06T04:42:30.476Z,40.28
2022-09-06T04:43:30.451Z,38.99
2022-09-06T04:44:30.466Z,39.64
2022-09-06T04:45:30.554Z,40.28
2022-09-06T04:46:30.438Z,39.32
2022-09-06T04:47:30.453Z,40.28
2022-09-06T04:48:30.437Z,40.12
2022-09-06T04:49:30.415Z,41.41
2022-09-06T04:50:30.411Z,43.02
2022-09-06T04:51:30.409Z,39.64
2022-09-06T04:52:30.495Z,40.44
2022-09-06T04:53:30.389Z,40.44
2022-09-06T04:54:30.385Z,41.25
2022-09-06T04:55:30.681Z,40.93
2022-09-06T04:56:30.428Z,42.54
2022-09-06T04:57:30.406Z,42.54
2022-09-06T04:58:30.360Z,40.44
2022-09-06T04:59:30.349Z,38.19
2022-09-06T05:00:30.334Z,39.96
2022-09-06T05:01:30.350Z,38.83
2022-09-06T05:02:30.385Z,41.41
2022-09-06T05:03:30.320Z,41.89
2022-09-06T05:04:30.301Z,39.32
2022-09-06T05:05:30.299Z,39.80
2022-09-06T05:06:30.303Z,38.67
2022-09-06T05:07:30.306Z,38.19
2022-09-06T05:08:30.278Z,39.80
2022-09-06T05:09:30.276Z,40.12
2022-09-06T05:10:30.271Z,39.64
2022-09-06T05:11:30.264Z,38.03
2022-09-06T05:12:30.270Z,40.12
2022-09-06T05:13:30.245Z,38.35
2022-09-06T05:14:30.253Z,39.96
2022-09-06T05:15:30.232Z,39.48
2022-09-06T05:16:30.279Z,40.61
2022-09-06T05:17:30.236Z,38.51
2022-09-06T05:18:30.437Z,40.12
2022-09-06T05:19:30.254Z,38.99
2022-09-06T05:20:30.279Z,38.99
2022-09-06T05:21:30.200Z,38.99
2022-09-06T05:22:30.223Z,39.96
2022-09-06T05:23:30.181Z,38.99
2022-09-06T05:24:30.184Z,38.35
2022-09-06T05:25:30.179Z,38.51
2022-09-06T05:26:30.168Z,39.48
2022-09-06T05:27:30.173Z,40.77
2022-09-06T05:28:30.147Z,40.77
2022-09-06T05:29:30.752Z,39.32
2022-09-06T05:30:31.140Z,39.16
2022-09-06T05:31:30.198Z,42.70
2022-09-06T05:32:30.134Z,41.89
2022-09-06T05:33:30.104Z,42.54
2022-09-06T05:34:30.104Z,41.41
2022-09-06T05:35:30.097Z,39.64
2022-09-06T05:36:30.134Z,40.12
2022-09-06T05:37:30.105Z,40.28
2022-09-06T05:38:30.166Z,38.51
2022-09-06T05:39:30.113Z,40.44
2022-09-06T05:40:30.077Z,40.28
2022-09-06T05:41:30.059Z,38.67
2022-09-06T05:42:30.068Z,38.83
2022-09-06T05:43:30.046Z,38.51
2022-09-06T05:44:30.038Z,40.61
2022-09-06T05:45:30.132Z,40.28
2022-09-06T05:46:30.020Z,38.35
2022-09-06T05:47:30.027Z,40.12
2022-09-06T05:48:34.621Z,40.12
2022-09-06T05:49:32.004Z,38.83
2022-09-06T05:50:29.996Z,38.03
2022-09-06T05:51:29.979Z,41.89
2022-09-06T05:52:29.991Z,38.51
2022-09-06T05:53:29.977Z,38.51
2022-09-06T05:54:29.972Z,37.71
2022-09-06T05:55:29.957Z,40.61
2022-09-06T05:56:29.964Z,38.99
2022-09-06T05:57:29.965Z,37.87
2022-09-06T05:58:29.936Z,38.99
2022-09-06T05:59:29.940Z,38.03
2022-09-06T06:00:29.920Z,38.67
2022-09-06T06:01:30.034Z,38.99
2022-09-06T06:02:30.012Z,37.54
2022-09-06T06:03:29.904Z,38.51
2022-09-06T06:04:29.897Z,38.35
2022-09-06T06:05:29.886Z,38.19
2022-09-06T06:06:29.876Z,38.83
2022-09-06T06:07:29.887Z,39.96
2022-09-06T06:08:29.871Z,38.67
2022-09-06T06:09:29.857Z,38.67
2022-09-06T06:10:29.856Z,37.22
2022-09-06T06:11:29.850Z,39.16
2022-09-06T06:12:29.862Z,39.16
2022-09-06T06:13:29.838Z,37.71
2022-09-06T06:14:29.825Z,37.06
2022-09-06T06:15:29.825Z,38.99
2022-09-06T06:16:29.867Z,36.90
2022-09-06T06:17:29.825Z,37.06
2022-09-06T06:18:29.798Z,37.06
2022-09-06T06:19:29.798Z,38.67
2022-09-06T06:20:29.801Z,36.42
2022-09-06T06:21:29.791Z,37.06
2022-09-06T06:22:29.806Z,37.54
2022-09-06T06:23:29.765Z,38.19
2022-09-06T06:24:30.733Z,38.35
2022-09-06T06:25:29.756Z,37.38
2022-09-06T06:26:29.752Z,38.19
2022-09-06T06:27:29.760Z,37.87
2022-09-06T06:28:29.739Z,38.67
2022-09-06T06:29:29.732Z,36.25
2022-09-06T06:30:29.742Z,36.90
2022-09-06T06:31:29.826Z,36.74
2022-09-06T06:32:29.734Z,36.09
2022-09-06T06:33:29.702Z,38.35
2022-09-06T06:34:29.703Z,38.03
2022-09-06T06:35:29.690Z,37.71
2022-09-06T06:36:29.667Z,36.58
2022-09-06T06:37:29.685Z,37.71
2022-09-06T06:38:29.758Z,38.19
2022-09-06T06:39:29.722Z,39.32
2022-09-06T06:40:29.641Z,38.19
2022-09-06T06:41:30.644Z,37.06
2022-09-06T06:42:29.663Z,37.06
2022-09-06T06:43:30.626Z,40.12
2022-09-06T06:44:29.618Z,37.87
2022-09-06T06:45:30.672Z,36.58
2022-09-06T06:46:29.627Z,37.22
2022-09-06T06:47:29.624Z,36.74
2022-09-06T06:48:29.580Z,36.58
2022-09-06T06:49:29.580Z,38.51
2022-09-06T06:50:29.578Z,38.99
2022-09-06T06:51:29.574Z,38.19
2022-09-06T06:52:29.578Z,38.99
2022-09-06T06:53:29.554Z,37.38
2022-09-06T06:54:29.539Z,37.54
2022-09-06T06:55:29.538Z,38.19
2022-09-06T06:56:29.548Z,35.93
2022-09-06T06:57:29.537Z,37.06
2022-09-06T06:58:29.519Z,37.71
2022-09-06T06:59:29.519Z,36.25
2022-09-06T07:00:29.517Z,35.61
2022-09-06T07:01:29.741Z,34.97
2022-09-06T07:02:29.547Z,35.61
2022-09-06T07:03:29.486Z,37.38
2022-09-06T07:04:29.474Z,37.71
2022-09-06T07:07:32.762Z,37.22
2022-09-06T07:08:29.443Z,36.74
2022-09-06T07:11:30.407Z,36.25
2022-09-06T07:12:29.423Z,38.19
2022-09-06T07:13:29.450Z,37.54
2022-09-06T07:14:29.408Z,35.29
2022-09-06T07:15:29.390Z,35.77
2022-09-06T07:16:29.542Z,35.45
2022-09-06T07:17:29.395Z,36.74
2022-09-06T07:18:29.358Z,36.42
2022-09-06T07:20:31.424Z,36.25
2022-09-06T07:22:31.362Z,36.09
2022-09-06T07:24:31.334Z,36.74
2022-09-06T07:25:29.332Z,35.93
2022-09-06T07:26:29.315Z,35.93
2022-09-06T07:28:31.299Z,38.67
2022-09-06T07:29:29.312Z,36.09
2022-09-06T07:30:29.286Z,36.42
2022-09-06T07:32:31.303Z,37.06
2022-09-06T07:33:29.342Z,37.54
2022-09-06T07:34:29.250Z,36.25
2022-09-06T07:35:29.245Z,37.06
2022-09-06T07:36:29.224Z,36.25
2022-09-06T07:37:29.416Z,35.77
2022-09-06T07:38:29.232Z,37.87
2022-09-06T07:39:29.277Z,36.42
2022-09-06T07:40:29.214Z,36.90
2022-09-06T07:41:29.207Z,35.93
2022-09-06T07:42:32.781Z,36.09
2022-09-06T07:43:30.188Z,36.90
2022-09-06T07:44:29.180Z,37.06
2022-09-06T07:45:29.178Z,36.09
2022-09-06T07:46:29.233Z,36.90
2022-09-06T07:48:31.175Z,37.38
2022-09-06T07:49:34.208Z,38.51
2022-09-06T07:50:47.413Z,37.54
